Weather at Taichung Airport [CLOSED]

Public forecast

Using degrees Celsius for public forecast. Weather courtesy of forecast.io.

Closest aviation weather report (METAR) to Taichung Airport

Closest report is Taichung Ching Chuang Kang Airport, 5.0 nm (9.3 km) NNW. Retrieved 2020/09/23 04:30 UTC (20 minutes ago):

RCMQ 230430Z 34007KT 9999 FEW012 SCT120 32/22 Q1010 NOSIG RMK A2983

Closest aviation forecast (TAF) to Taichung Airport

Closest forecast is Taichung Ching Chuang Kang Airport, 5.0 nm (9.3 km) NNW. Retrieved 2020-09-23 00:21 UTC (4 hours ago):

TAF RCMQ 222300Z 2300/2324 02006KT 9999 FEW012 SCT200 TX32/2306Z TN24/2321Z BECMG 2305/2307 FEW012 BKN200 BECMG 2310/2313 36004KT FEW012 BKN100